Time;durP1;ratioP1;P1;durP2;ratioP2;P2;SDS_P1;SDS_P2;PMS_P1;PMS_P2;Temp;Humidity;BMP_temperature;BMP_pressure;BME280_temperature;BME280_humidity;BME280_pressure;Samples;Min_cycle;Max_cycle;Signal;HPM_P1;HPM_P2
2022/06/04 00:01:13;;;;;;;2.95;1.90;;;;;;;16.95;52.78;101751.22;5017477;28;20507;-44
2022/06/04 00:04:01;;;;;;;3.47;1.98;;;;;;;17.02;52.50;101762.72;5026682;28;20055;-48
2022/06/04 00:06:48;;;;;;;3.85;1.90;;;;;;;16.93;52.66;101764.47;5032929;28;20068;-48
2022/06/04 00:09:36;;;;;;;4.95;1.70;;;;;;;16.93;52.55;101745.22;5032109;28;20220;-49
2022/06/04 00:15:30;;;;;;;6.35;2.30;;;;;;;16.86;52.75;101750.22;5013702;28;20042;-49
2022/06/04 00:18:19;;;;;;;7.65;2.10;;;;;;;16.66;53.27;101747.56;5031217;28;20045;-46
2022/06/04 00:21:09;;;;;;;3.00;2.00;;;;;;;16.58;53.40;101749.81;5020018;28;21719;-50
2022/06/04 00:23:56;;;;;;;6.25;2.28;;;;;;;16.66;53.30;101740.13;5020430;28;20088;-47
2022/06/04 00:26:44;;;;;;;5.75;2.17;;;;;;;16.61;53.29;101732.75;5032462;28;20069;-49
2022/06/04 00:29:32;;;;;;;3.92;1.80;;;;;;;16.61;53.29;101738.25;5030495;28;20041;-49
2022/06/04 00:32:20;;;;;;;4.35;2.25;;;;;;;16.60;53.01;101727.53;5019627;28;20050;-49
2022/06/04 00:35:08;;;;;;;3.97;2.05;;;;;;;16.50;53.25;101741.34;5032817;28;20415;-47
2022/06/04 00:37:58;;;;;;;5.13;2.20;;;;;;;16.50;53.30;101739.44;5020640;28;20046;-48
2022/06/04 00:41:17;;;;;;;5.47;1.75;;;;;;;16.51;53.22;101732.00;5020295;28;20050;-47
2022/06/04 00:44:10;;;;;;;4.30;2.13;;;;;;;16.57;53.48;101730.84;5019877;28;20099;-49
2022/06/04 00:47:26;;;;;;;3.50;1.73;;;;;;;16.37;53.77;101731.81;5032460;28;20447;-50
2022/06/04 00:50:16;;;;;;;6.82;2.30;;;;;;;16.31;53.60;101741.22;5018639;28;20057;-45
2022/06/04 00:53:08;;;;;;;7.65;2.50;;;;;;;16.33;53.62;101739.81;5028969;28;20077;-52
2022/06/04 00:56:24;;;;;;;4.00;2.35;;;;;;;16.30;53.86;101731.31;5011350;28;20050;-49
2022/06/04 00:59:19;;;;;;;7.40;2.15;;;;;;;16.28;53.97;101731.56;5027924;28;20421;-50
2022/06/04 01:02:38;;;;;;;4.05;2.10;;;;;;;16.17;53.98;101739.06;5023507;28;20057;-49
2022/06/04 01:05:22;;;;;;;2.17;1.58;;;;;;;16.03;54.31;101746.31;5023534;28;20057;-49
2022/06/04 01:08:19;;;;;;;3.75;2.17;;;;;;;15.91;55.29;101756.81;5030665;28;20041;-49
2022/06/04 01:11:15;;;;;;;3.97;1.85;;;;;;;15.91;54.96;101765.03;5028999;28;20068;-48
2022/06/04 01:14:06;;;;;;;5.40;2.25;;;;;;;15.83;55.24;101760.97;5023735;28;20053;-49
2022/06/04 01:17:15;;;;;;;5.75;2.60;;;;;;;15.96;55.47;101778.75;5020220;28;20365;-48
2022/06/04 01:20:14;;;;;;;4.43;2.10;;;;;;;15.89;55.35;101801.03;5030524;28;20046;-49
2022/06/04 01:23:39;;;;;;;6.65;2.47;;;;;;;15.76;55.49;101805.22;5022866;28;20077;-47
2022/06/04 01:26:32;;;;;;;4.35;2.10;;;;;;;15.83;55.81;101807.69;5029145;28;20523;-48
2022/06/04 01:29:04;;;;;;;7.82;2.53;;;;;;;15.81;55.58;101800.81;5031542;28;20124;-47
2022/06/04 01:32:00;;;;;;;4.57;1.88;;;;;;;15.71;56.27;101802.47;5016560;28;20052;-47
2022/06/04 01:35:00;;;;;;;3.28;2.20;;;;;;;15.68;56.09;101807.66;5030457;28;20143;-45
2022/06/04 01:38:03;;;;;;;5.80;2.10;;;;;;;15.62;56.63;101806.88;5020535;28;20057;-47
2022/06/04 01:41:25;;;;;;;7.28;2.53;;;;;;;15.67;56.56;101801.34;5019663;28;20050;-47
2022/06/04 01:44:19;;;;;;;6.38;2.30;;;;;;;15.73;56.58;101794.78;5042567;28;20061;-49
2022/06/04 01:47:06;;;;;;;4.22;2.33;;;;;;;15.71;56.52;101794.25;5019558;28;20099;-47
2022/06/04 01:49:56;;;;;;;4.72;2.22;;;;;;;15.61;56.69;101793.41;5034440;28;20046;-48
2022/06/04 01:52:45;;;;;;;6.93;2.72;;;;;;;15.62;56.90;101793.13;5026147;28;20506;-47
2022/06/04 01:55:47;;;;;;;5.70;2.28;;;;;;;15.55;57.01;101798.09;5017747;28;20411;-50
2022/06/04 01:58:45;;;;;;;5.55;2.67;;;;;;;15.49;57.19;101804.69;5028269;28;20049;-49
2022/06/04 02:01:34;;;;;;;5.65;2.53;;;;;;;15.50;57.38;101811.84;5028079;28;20040;-48
2022/06/04 02:04:26;;;;;;;5.95;2.65;;;;;;;15.53;57.18;101811.28;5031494;28;20068;-46
2022/06/04 02:07:30;;;;;;;3.85;2.53;;;;;;;15.49;57.20;101810.16;5009870;28;20053;-49
2022/06/04 02:10:26;;;;;;;5.55;2.25;;;;;;;15.40;58.09;101823.66;5015654;28;20058;-48
2022/06/04 02:13:14;;;;;;;;;;;;;;;15.42;57.55;101826.94;5029451;28;20049;-49
2022/06/04 02:16:08;;;;;;;6.80;2.58;;;;;;;15.38;58.47;101819.53;5021815;28;20296;-46
2022/06/04 02:18:57;;;;;;;6.57;2.40;;;;;;;15.16;58.85;101803.34;5035043;28;20488;-46
2022/06/04 02:21:45;;;;;;;10.02;2.72;;;;;;;15.17;58.88;101802.25;5030965;28;20049;-47
2022/06/04 02:24:26;;;;;;;8.52;2.55;;;;;;;15.27;58.83;101794.84;5022714;28;20129;-47
2022/06/04 02:27:14;;;;;;;5.13;2.55;;;;;;;15.31;58.79;101803.34;5012810;28;20080;-49
2022/06/04 02:30:03;;;;;;;4.50;2.20;;;;;;;15.31;58.71;101793.16;5015973;28;20053;-48
2022/06/04 02:32:53;;;;;;;6.22;2.20;;;;;;;15.36;58.71;101797.03;5020598;28;20045;-47
2022/06/04 02:36:08;;;;;;;6.88;2.90;;;;;;;15.17;59.63;101802.25;5021000;28;20037;-50
2022/06/04 02:38:59;;;;;;;;;;;;;;;14.97;60.87;101808.56;5017722;28;20046;-47
2022/06/04 02:41:55;;;;;;;7.03;2.80;;;;;;;15.05;60.85;101810.75;5030255;28;19935;-51
2022/06/04 02:44:57;;;;;;;8.10;3.08;;;;;;;14.90;61.16;101797.84;5022824;28;20080;-46
2022/06/04 02:48:10;;;;;;;4.07;2.55;;;;;;;14.87;61.45;101798.41;5023956;28;20049;-48
2022/06/04 02:51:21;;;;;;;7.40;2.55;;;;;;;14.96;60.91;101793.16;5021538;28;20056;-49
2022/06/04 02:54:25;;;;;;;8.85;3.20;;;;;;;14.90;61.51;101793.19;5019161;28;20045;-47
2022/06/04 02:57:00;;;;;;;5.93;2.83;;;;;;;15.02;61.39;101779.19;5014709;28;20046;-47
2022/06/04 02:59:48;;;;;;;6.50;2.80;;;;;;;15.02;61.27;101779.19;5012905;28;20057;-49
2022/06/04 03:02:37;;;;;;;6.45;3.25;;;;;;;14.87;62.12;101777.25;5019757;28;20037;-48
2022/06/04 03:05:26;;;;;;;7.72;2.92;;;;;;;14.97;61.91;101770.97;5027051;28;20075;-44
2022/06/04 03:08:14;;;;;;;5.00;2.65;;;;;;;14.70;62.78;101763.81;5021405;28;20038;-47
2022/06/04 03:11:02;;;;;;;7.38;3.00;;;;;;;14.74;62.93;101760.50;5019512;28;20409;-47
2022/06/04 03:13:49;;;;;;;6.10;3.05;;;;;;;14.73;63.06;101770.66;5033747;28;20052;-49
2022/06/04 03:16:39;;;;;;;8.98;3.15;;;;;;;14.70;63.21;101776.72;5032930;28;20045;-48
2022/06/04 03:19:27;;;;;;;8.75;3.17;;;;;;;14.59;63.83;101770.38;5023444;28;20053;-49
2022/06/04 03:22:14;;;;;;;6.00;2.78;;;;;;;14.54;64.03;101772.28;5026446;28;20420;-48
2022/06/04 03:25:02;;;;;;;4.85;3.03;;;;;;;14.40;64.75;101763.72;5032480;28;20053;-49
2022/06/04 03:27:47;;;;;;;6.28;2.70;;;;;;;14.51;64.51;101761.84;5006762;28;20497;-49
2022/06/04 03:30:36;;;;;;;8.23;3.28;;;;;;;14.42;64.91;101770.56;5025260;28;20042;-49
2022/06/04 03:33:23;;;;;;;4.55;2.65;;;;;;;14.37;65.29;101767.00;5020207;28;20046;-50
2022/06/04 03:36:11;;;;;;;6.20;3.00;;;;;;;14.39;65.56;101762.91;5019422;28;20045;-47
2022/06/04 03:39:00;;;;;;;6.93;3.08;;;;;;;14.48;65.24;101764.03;5028705;28;20041;-47
2022/06/04 03:41:48;;;;;;;6.88;3.17;;;;;;;14.47;65.52;101773.31;5022896;28;20045;-50
2022/06/04 03:44:16;;;;;;;7.57;3.25;;;;;;;14.49;65.39;101765.66;5033572;28;20386;-47
2022/06/04 03:47:05;;;;;;;6.50;3.08;;;;;;;14.22;66.72;101768.63;5025902;28;20536;-48
2022/06/04 03:49:54;;;;;;;6.53;2.85;;;;;;;14.26;66.69;101772.47;5028737;28;20095;-48
2022/06/04 03:52:42;;;;;;;7.35;3.17;;;;;;;14.31;66.51;101773.56;5032605;28;20072;-52
2022/06/04 03:55:29;;;;;;;6.78;3.80;;;;;;;14.33;66.77;101777.69;5030930;28;20049;-53
2022/06/04 03:58:17;;;;;;;7.85;3.50;;;;;;;14.23;67.36;101786.69;5016362;28;20097;-47
2022/06/04 04:01:15;;;;;;;10.85;4.18;;;;;;;14.30;67.26;101778.22;5032821;28;20057;-50
2022/06/04 04:03:43;;;;;;;7.65;3.63;;;;;;;14.33;67.12;101777.69;5030723;28;20049;-50
2022/06/04 04:06:33;;;;;;;9.20;3.75;;;;;;;14.19;67.91;101782.00;5025173;28;20037;-52
2022/06/04 04:09:21;;;;;;;7.97;3.17;;;;;;;14.28;67.79;101780.41;5019488;28;20411;-52
2022/06/04 04:12:08;;;;;;;9.23;3.35;;;;;;;14.30;67.67;101786.44;5031666;28;20064;-48
2022/06/04 04:15:02;;;;;;;8.27;3.53;;;;;;;14.24;68.06;101798.50;5031939;28;20050;-49
2022/06/04 04:17:51;;;;;;;7.97;3.83;;;;;;;14.20;68.54;101783.69;5027964;28;20045;-48
2022/06/04 04:20:41;;;;;;;6.95;3.40;;;;;;;14.24;68.85;101787.53;5030830;28;20054;-48
2022/06/04 04:23:29;;;;;;;11.35;3.50;;;;;;;14.25;68.78;101791.91;5025111;28;20069;-48
2022/06/04 04:26:17;;;;;;;8.38;3.35;;;;;;;14.26;68.72;101799.88;5017919;28;20435;-48
2022/06/04 04:29:06;;;;;;;7.75;3.60;;;;;;;14.23;69.08;101802.31;5018118;28;20049;-50
2022/06/04 04:31:54;;;;;;;8.98;3.22;;;;;;;14.17;69.52;101814.38;5032355;28;20072;-48
2022/06/04 04:34:41;;;;;;;8.50;3.70;;;;;;;14.10;70.18;101816.53;5029514;28;20050;-48
2022/06/04 04:37:29;;;;;;;11.35;3.95;;;;;;;14.15;69.88;101814.63;5020399;28;20058;-47
2022/06/04 04:40:19;;;;;;;7.28;3.25;;;;;;;14.08;70.22;101811.31;5030417;28;20423;-48
2022/06/04 04:43:07;;;;;;;8.15;3.15;;;;;;;14.17;70.45;101800.66;5023329;28;20054;-47
2022/06/04 04:46:03;;;;;;;6.90;3.05;;;;;;;14.15;70.46;101811.06;5031027;28;20052;-49
2022/06/04 04:48:51;;;;;;;9.02;3.63;;;;;;;14.16;70.83;101809.97;5019486;28;20071;-48
2022/06/04 04:51:39;;;;;;;9.63;3.67;;;;;;;14.00;71.56;101812.66;5032359;28;20512;-48
2022/06/04 04:54:27;;;;;;;10.80;4.07;;;;;;;14.01;71.72;101803.31;5032804;28;20049;-49
2022/06/04 04:57:15;;;;;;;7.93;3.40;;;;;;;14.09;71.68;101809.38;5001038;28;20041;-49
2022/06/04 05:00:05;;;;;;;9.35;3.45;;;;;;;14.12;71.45;101825.28;5031677;28;20532;-47
2022/06/04 05:02:52;;;;;;;7.20;3.50;;;;;;;13.98;72.18;101822.22;5031486;28;20049;-51
2022/06/04 05:05:40;;;;;;;9.55;3.95;;;;;;;14.00;71.90;101826.34;5031114;28;20081;-52
2022/06/04 05:08:28;;;;;;;5.95;3.25;;;;;;;13.92;72.73;101836.97;5025296;28;20038;-48
2022/06/04 05:11:18;;;;;;;10.63;3.70;;;;;;;13.92;73.02;101837.81;5016821;28;20054;-52
2022/06/04 05:14:06;;;;;;;8.60;4.15;;;;;;;14.15;72.09;101843.97;5033929;28;20045;-48
2022/06/04 05:16:53;;;;;;;9.65;4.22;;;;;;;14.23;71.90;101843.44;5026718;28;20504;-50
2022/06/04 05:19:33;;;;;;;10.27;3.90;;;;;;;14.30;71.60;101846.75;5019257;28;20059;-49
2022/06/04 05:22:21;;;;;;;10.30;4.38;;;;;;;14.13;72.46;101844.22;5027850;28;20057;-47
2022/06/04 05:25:09;;;;;;;8.60;4.20;;;;;;;13.99;73.12;101843.88;5026573;28;20052;-49
2022/06/04 05:27:56;;;;;;;10.50;4.78;;;;;;;13.87;74.29;101829.56;5030415;28;20056;-48
2022/06/04 05:30:44;;;;;;;11.63;5.07;;;;;;;13.87;74.63;101828.75;5035491;28;20128;-51
2022/06/04 05:33:32;;;;;;;10.18;4.10;;;;;;;13.83;74.56;101822.97;5034980;28;20049;-47
2022/06/04 05:36:19;;;;;;;10.80;4.55;;;;;;;13.88;74.37;101828.47;5016352;28;20067;-48
2022/06/04 05:39:08;;;;;;;9.40;4.00;;;;;;;13.99;74.22;101829.34;5021945;28;20045;-49
2022/06/04 05:41:56;;;;;;;8.23;3.42;;;;;;;13.93;74.08;101830.44;5033462;28;20068;-49
2022/06/04 05:44:43;;;;;;;8.95;4.53;;;;;;;13.86;74.64;101838.88;5035175;28;20050;-50
2022/06/04 05:47:31;;;;;;;10.25;4.60;;;;;;;13.90;74.87;101847.38;5025381;28;20053;-49
2022/06/04 05:50:19;;;;;;;11.32;4.32;;;;;;;14.05;74.51;101851.03;5020639;28;20072;-48
2022/06/04 05:53:06;;;;;;;10.40;4.20;;;;;;;14.11;74.23;101854.63;5028806;28;20511;-47
2022/06/04 05:55:54;;;;;;;10.52;4.63;;;;;;;14.17;74.29;101861.78;5033916;28;20052;-47
2022/06/04 05:58:41;;;;;;;12.82;4.60;;;;;;;14.18;73.64;101857.13;5029064;28;20502;-47
2022/06/04 06:01:31;;;;;;;8.45;3.92;;;;;;;14.18;73.60;101859.88;5034940;28;20053;-47
2022/06/04 06:04:21;;;;;;;10.02;3.95;;;;;;;14.14;73.59;101858.75;5015636;28;20501;-47
2022/06/04 06:07:09;;;;;;;13.40;5.28;;;;;;;14.10;73.95;101861.19;5025903;28;20057;-48
2022/06/04 06:09:56;;;;;;;11.38;5.50;;;;;;;14.07;74.49;101865.31;5010588;28;20054;-47
2022/06/04 06:12:44;;;;;;;10.18;5.20;;;;;;;14.03;74.56;101866.91;5035329;28;20052;-52
2022/06/04 06:15:32;;;;;;;10.85;5.07;;;;;;;14.05;74.72;101872.97;5033366;28;20056;-49
2022/06/04 06:18:20;;;;;;;14.20;5.57;;;;;;;13.99;74.75;101874.00;5023938;28;20049;-52
2022/06/04 06:21:19;;;;;;;11.82;5.05;;;;;;;13.99;74.54;101876.75;5019652;28;20045;-51
2022/06/04 06:24:09;;;;;;;13.52;5.60;;;;;;;14.07;74.84;101872.72;5034718;28;20060;-52
2022/06/04 06:26:58;;;;;;;10.43;5.43;;;;;;;14.08;74.57;101874.34;5024524;28;20050;-50
2022/06/04 06:29:46;;;;;;;13.73;6.05;;;;;;;14.10;74.81;101871.34;5017112;28;20505;-52
2022/06/04 06:32:33;;;;;;;12.38;5.50;;;;;;;14.12;74.45;101877.38;5030648;28;20049;-48
2022/06/04 06:35:10;;;;;;;11.57;5.25;;;;;;;14.10;74.47;101882.31;5028351;28;20472;-49
2022/06/04 06:37:58;;;;;;;10.07;5.22;;;;;;;14.15;74.47;101885.06;5025670;28;20060;-47
2022/06/04 06:40:46;;;;;;;10.93;5.10;;;;;;;14.26;74.20;101886.75;5034041;28;20053;-47
2022/06/04 06:46:30;;;;;;;11.00;5.13;;;;;;;14.37;73.96;101893.13;5029900;28;20049;-48
2022/06/04 06:49:19;;;;;;;9.73;5.47;;;;;;;14.36;73.46;101889.56;5026627;28;20046;-51
2022/06/04 06:52:09;;;;;;;12.88;5.18;;;;;;;14.21;74.18;101890.28;5033212;28;20049;-50
2022/06/04 06:54:57;;;;;;;13.65;5.85;;;;;;;14.20;74.78;101888.66;5032959;28;20045;-47
2022/06/04 06:57:44;;;;;;;14.27;5.30;;;;;;;14.23;74.42;101890.84;5028234;28;20049;-46
2022/06/04 07:00:32;;;;;;;14.98;6.35;;;;;;;14.26;73.97;101893.09;5032722;28;20119;-45
2022/06/04 07:03:20;;;;;;;11.50;5.82;;;;;;;14.19;74.38;101891.66;5026749;28;20057;-47
2022/06/04 07:06:10;;;;;;;13.25;5.75;;;;;;;14.17;74.70;101899.34;5014579;28;20037;-44
2022/06/04 07:08:58;;;;;;;13.70;5.50;;;;;;;14.22;74.98;101896.63;5021027;28;20046;-51
2022/06/04 07:11:46;;;;;;;10.50;5.85;;;;;;;14.25;74.30;101907.06;5028094;28;20069;-50
2022/06/04 07:14:34;;;;;;;9.63;5.07;;;;;;;14.29;74.38;101894.47;5033788;28;20041;-48
2022/06/04 07:17:22;;;;;;;9.70;5.47;;;;;;;14.31;74.45;101895.03;5025878;28;20045;-48
2022/06/04 07:20:10;;;;;;;11.00;5.75;;;;;;;14.32;74.23;101890.38;5026161;28;20049;-48
2022/06/04 07:22:58;;;;;;;13.57;6.20;;;;;;;14.26;75.12;101892.25;5034090;28;20061;-47
2022/06/04 07:25:46;;;;;;;13.82;5.82;;;;;;;14.36;74.62;101885.97;5019777;28;20527;-52
2022/06/04 07:28:37;;;;;;;17.40;7.70;;;;;;;14.42;74.37;101882.19;5021599;28;20041;-50
2022/06/04 07:31:07;;;;;;;13.23;5.95;;;;;;;14.40;75.01;101893.41;5029791;28;20053;-48
2022/06/04 07:33:55;;;;;;;12.65;5.95;;;;;;;14.39;74.40;101894.50;5032929;28;20422;-53
2022/06/04 07:36:44;;;;;;;13.07;6.07;;;;;;;14.47;74.15;101893.97;5017024;28;20045;-50
2022/06/04 07:39:31;;;;;;;10.60;5.60;;;;;;;14.58;73.92;101891.34;5026893;28;20057;-49
2022/06/04 07:42:19;;;;;;;11.50;5.88;;;;;;;14.67;73.12;101895.19;5022127;28;20050;-51
2022/06/04 07:44:59;;;;;;;12.02;6.10;;;;;;;14.68;72.94;101894.94;5018354;28;20061;-51
2022/06/04 07:47:46;;;;;;;11.88;6.55;;;;;;;14.69;72.86;101909.47;5031693;28;20046;-45
2022/06/04 07:50:34;;;;;;;10.77;5.75;;;;;;;14.80;72.38;101913.91;5020807;28;20037;-46
2022/06/04 07:53:17;;;;;;;11.25;6.25;;;;;;;14.82;72.77;101906.22;4995643;28;20423;-51
2022/06/04 07:56:08;;;;;;;10.70;5.57;;;;;;;14.91;72.36;101906.50;5023138;28;20056;-47
2022/06/04 07:58:56;;;;;;;10.85;5.85;;;;;;;14.81;72.53;101906.47;5032888;28;20046;-50
2022/06/04 08:01:44;;;;;;;11.75;6.40;;;;;;;14.79;73.39;101905.91;5033329;28;20045;-50
2022/06/04 08:04:32;;;;;;;16.23;6.40;;;;;;;14.88;72.22;101907.06;5013088;28;20046;-52
2022/06/04 08:07:21;;;;;;;12.50;5.88;;;;;;;14.91;71.92;101899.13;5027396;28;20111;-48
2022/06/04 08:10:10;;;;;;;11.73;5.68;;;;;;;14.93;72.31;101895.25;5018058;28;20492;-48
2022/06/04 08:13:01;;;;;;;11.15;6.07;;;;;;;15.01;72.65;101908.44;5013018;28;20052;-46
2022/06/04 08:15:48;;;;;;;12.70;5.60;;;;;;;15.07;72.07;101912.88;5031033;28;20045;-47
2022/06/04 08:18:36;;;;;;;12.68;6.45;;;;;;;15.11;71.85;101913.97;5030305;28;20049;-47
2022/06/04 08:21:24;;;;;;;15.63;6.30;;;;;;;15.11;72.86;101913.97;5021191;28;20416;-45
2022/06/04 08:23:52;;;;;;;12.35;6.63;;;;;;;15.06;72.65;101903.81;5031071;28;20400;-46
2022/06/04 08:26:41;;;;;;;12.23;6.03;;;;;;;15.10;72.66;101906.81;5024176;28;20144;-48
2022/06/04 08:29:32;;;;;;;10.18;6.18;;;;;;;15.11;72.60;101906.56;5021432;28;20489;-46
2022/06/04 08:32:20;;;;;;;10.95;6.18;;;;;;;15.15;72.72;101908.75;5018302;28;20050;-49
2022/06/04 08:35:08;;;;;;;12.18;6.38;;;;;;;15.23;73.20;101909.06;5027248;28;20052;-50
2022/06/04 08:37:55;;;;;;;12.32;6.32;;;;;;;15.26;71.83;101911.25;5024712;28;20053;-49
2022/06/04 08:40:50;;;;;;;11.40;6.05;;;;;;;15.32;71.64;101899.19;5021248;28;20061;-48
2022/06/04 08:44:05;;;;;;;12.65;6.35;;;;;;;15.41;71.79;101893.13;5024526;28;20049;-50
2022/06/04 08:47:17;;;;;;;10.70;6.35;;;;;;;15.51;70.67;101898.63;5036589;28;20037;-46
2022/06/04 08:50:21;;;;;;;10.48;6.53;;;;;;;15.50;70.40;101892.31;5031194;28;20107;-48
2022/06/04 08:53:19;;;;;;;15.68;6.90;;;;;;;15.50;70.53;101892.31;5023217;28;20061;-49
2022/06/04 08:59:35;;;;;;;12.43;6.22;;;;;;;15.67;69.97;101893.94;5030263;28;20045;-49
2022/06/04 09:02:44;;;;;;;12.45;6.53;;;;;;;15.75;69.64;101891.50;5019138;28;20472;-49
2022/06/04 09:05:51;;;;;;;14.07;6.50;;;;;;;15.77;69.66;101893.97;5036598;28;20404;-48
2022/06/04 09:08:54;;;;;;;12.32;6.10;;;;;;;15.86;69.76;101908.81;5023738;28;20077;-48
2022/06/04 09:12:07;;;;;;;15.95;7.20;;;;;;;16.01;68.93;101913.44;5013065;28;20497;-47
2022/06/04 09:15:12;;;;;;;12.15;6.88;;;;;;;16.05;68.00;101917.28;5020203;28;20121;-47
2022/06/04 09:18:17;;;;;;;11.07;6.35;;;;;;;16.09;68.45;101915.63;5021754;28;20045;-48
2022/06/04 09:21:05;;;;;;;16.15;7.15;;;;;;;16.17;68.28;101919.75;5035741;28;20484;-49
2022/06/04 09:23:52;;;;;;;14.23;6.78;;;;;;;16.18;68.46;101922.19;5029963;28;20066;-50
2022/06/04 09:26:52;;;;;;;15.18;7.07;;;;;;;16.26;68.13;101922.72;5035849;28;20411;-50
2022/06/04 09:29:54;;;;;;;13.00;6.45;;;;;;;16.47;67.07;101924.31;5013127;28;20061;-49
2022/06/04 09:32:51;;;;;;;12.52;7.03;;;;;;;16.53;66.49;101917.69;5033686;28;20053;-50
2022/06/04 09:35:40;;;;;;;17.38;7.20;;;;;;;16.57;66.28;101917.94;5026465;28;20061;-52
2022/06/04 09:38:31;;;;;;;13.25;7.32;;;;;;;16.61;66.82;101903.34;5029979;28;20049;-52
2022/06/04 09:41:21;;;;;;;13.25;8.07;;;;;;;16.65;66.15;101908.31;5035550;28;20072;-49
2022/06/04 09:44:16;;;;;;;12.00;6.57;;;;;;;16.69;66.12;101914.88;5035718;28;20115;-47
2022/06/04 09:47:17;;;;;;;15.30;7.28;;;;;;;16.71;67.03;101912.66;5031540;28;20049;-49
2022/06/04 09:50:26;;;;;;;18.73;7.10;;;;;;;16.81;66.63;101907.97;5033067;28;20393;-53
2022/06/04 09:53:21;;;;;;;13.30;6.80;;;;;;;16.83;66.64;101911.22;5022638;28;20100;-53
2022/06/04 09:56:14;;;;;;;12.70;7.63;;;;;;;16.88;65.77;101907.63;5027608;28;20049;-52
2022/06/04 09:59:29;;;;;;;13.48;7.97;;;;;;;16.94;65.26;101912.03;5024294;28;20045;-53
2022/06/04 10:02:18;;;;;;;18.52;7.82;;;;;;;16.93;65.40;101912.28;5022820;28;20091;-50
2022/06/04 10:05:17;;;;;;;12.43;7.28;;;;;;;16.95;65.87;101910.91;5035228;28;20085;-51
2022/06/04 10:08:12;;;;;;;12.77;7.95;;;;;;;17.08;66.58;101908.63;5028403;28;20539;-52
2022/06/04 10:11:04;;;;;;;12.35;8.00;;;;;;;17.18;66.12;101911.31;5002783;28;20053;-49
2022/06/04 10:13:55;;;;;;;14.55;7.72;;;;;;;17.27;65.78;101919.78;5011826;28;20052;-50
2022/06/04 10:16:46;;;;;;;13.82;7.40;;;;;;;17.27;65.03;101928.91;5025590;28;20112;-52
2022/06/04 10:19:35;;;;;;;15.13;8.60;;;;;;;17.25;65.17;101931.09;5023459;28;20065;-48
2022/06/04 10:22:23;;;;;;;15.63;8.32;;;;;;;17.33;65.36;101937.94;5026180;28;20045;-50
2022/06/04 10:25:39;;;;;;;14.65;8.13;;;;;;;17.41;64.30;101940.91;5030230;28;20125;-48
2022/06/04 10:29:04;;;;;;;14.55;8.45;;;;;;;17.42;64.63;101928.78;5018479;28;20085;-52
2022/06/04 10:32:14;;;;;;;13.27;7.95;;;;;;;17.51;64.49;101930.91;5018469;28;20054;-47
2022/06/04 10:35:45;;;;;;;14.82;8.13;;;;;;;17.60;64.60;101923.66;5017644;28;20034;-49
2022/06/04 10:39:10;;;;;;;13.10;7.50;;;;;;;17.77;64.61;101926.81;5020360;28;20164;-48
2022/06/04 10:41:55;;;;;;;18.08;8.48;;;;;;;17.84;64.14;101924.56;5027684;28;20092;-48
2022/06/04 10:45:00;;;;;;;12.75;8.13;;;;;;;17.86;63.91;101914.09;5025728;28;20413;-48
2022/06/04 10:47:56;;;;;;;12.70;7.88;;;;;;;18.02;63.37;101925.78;5021524;28;20046;-47
2022/06/04 10:51:30;;;;;;;15.90;8.48;;;;;;;18.05;63.52;101918.88;5021465;28;20041;-47
2022/06/04 10:54:25;;;;;;;13.43;8.55;;;;;;;18.07;62.67;101913.88;5029291;28;20157;-47
2022/06/04 10:57:21;;;;;;;14.90;8.00;;;;;;;18.07;63.19;101919.41;5030338;28;20037;-47
2022/06/04 11:00:28;;;;;;;15.82;9.10;;;;;;;18.16;63.04;101906.63;5016769;28;20052;-48
2022/06/04 11:03:31;;;;;;;15.38;7.72;;;;;;;18.18;62.67;101917.34;5023291;28;20046;-47
2022/06/04 11:06:28;;;;;;;16.50;8.50;;;;;;;18.30;62.61;101926.03;5030213;28;20053;-48
2022/06/04 11:09:19;;;;;;;13.43;8.60;;;;;;;18.34;62.82;101918.00;5024466;28;20049;-50
2022/06/04 11:12:30;;;;;;;15.73;8.60;;;;;;;18.30;62.13;101915.84;5024560;28;20058;-50
2022/06/04 11:15:25;;;;;;;12.68;6.95;;;;;;;18.35;62.59;101923.25;5027390;28;20044;-49
2022/06/04 11:18:17;;;;;;;17.40;8.90;;;;;;;18.43;62.22;101924.53;5029902;28;20408;-49
2022/06/04 11:21:17;;;;;;;13.55;7.43;;;;;;;18.48;62.16;101930.78;5032621;28;20053;-49
2022/06/04 11:24:11;;;;;;;14.18;8.65;;;;;;;18.64;61.82;101931.44;5015272;28;20073;-50
2022/06/04 11:27:13;;;;;;;13.95;8.32;;;;;;;18.68;61.32;101928.91;5030795;28;20077;-49
2022/06/04 11:30:03;;;;;;;13.45;8.38;;;;;;;18.75;61.38;101926.59;5016485;28;20054;-49
2022/06/04 11:32:57;;;;;;;15.13;8.15;;;;;;;18.75;60.65;101926.59;5027855;28;20416;-50
2022/06/04 11:35:57;;;;;;;14.52;8.38;;;;;;;18.97;60.31;101928.81;5024824;28;20041;-48
2022/06/04 11:38:55;;;;;;;13.45;7.47;;;;;;;19.09;60.07;101923.66;5022643;28;20087;-49
2022/06/04 11:41:59;;;;;;;14.68;8.52;;;;;;;19.25;59.28;101926.22;5030688;28;20779;-50
2022/06/04 11:44:59;;;;;;;16.27;8.82;;;;;;;19.23;59.08;101914.63;5028401;28;20492;-48
2022/06/04 11:48:09;;;;;;;15.00;8.00;;;;;;;19.13;59.04;101924.72;5033034;28;20052;-48
2022/06/04 11:51:28;;;;;;;14.13;8.13;;;;;;;19.13;58.58;101921.13;5023261;28;20511;-49
2022/06/04 11:54:43;;;;;;;13.50;6.93;;;;;;;19.08;59.13;101919.25;5024672;28;20057;-50
2022/06/04 11:57:58;;;;;;;14.48;8.93;;;;;;;19.11;58.81;101915.91;5026259;28;20096;-47
2022/06/04 12:00:46;;;;;;;12.83;8.13;;;;;;;19.07;58.92;101917.63;5020083;28;20046;-48
2022/06/04 12:03:40;;;;;;;15.73;7.70;;;;;;;19.07;59.16;101903.81;5019285;28;20108;-50
2022/06/04 12:06:41;;;;;;;12.05;8.00;;;;;;;19.08;58.96;101901.88;4334048;28;10020712;-51
2022/06/04 12:09:39;;;;;;;11.27;6.35;;;;;;;19.03;59.67;101894.47;5010777;28;20074;-51
2022/06/04 12:12:33;;;;;;;15.63;8.93;;;;;;;19.07;59.77;101889.16;5024320;28;20427;-49
2022/06/04 12:15:38;;;;;;;12.93;8.02;;;;;;;19.14;59.17;101893.19;5018594;28;20060;-50
2022/06/04 12:18:35;;;;;;;13.93;8.82;;;;;;;19.11;59.55;101888.28;5007900;28;20398;-52
2022/06/04 12:24:58;;;;;;;14.30;7.45;;;;;;;19.36;59.13;101886.22;5017410;28;20064;-48
2022/06/04 12:28:00;;;;;;;13.75;7.32;;;;;;;19.45;58.06;101873.34;5022802;28;20045;-48
2022/06/04 12:30:48;;;;;;;11.65;7.18;;;;;;;19.69;59.00;101877.97;5029542;28;20048;-52
2022/06/04 12:33:40;;;;;;;12.82;6.68;;;;;;;19.93;57.19;101873.06;5028535;28;20066;-50
2022/06/04 12:36:32;;;;;;;17.63;7.28;;;;;;;19.85;56.66;101868.25;5012128;28;20053;-48
2022/06/04 12:39:24;;;;;;;14.40;7.05;;;;;;;19.88;56.44;101862.09;5021928;28;20053;-51
2022/06/04 12:42:20;;;;;;;12.43;7.13;;;;;;;19.91;56.43;101872.56;5010088;28;20054;-51
2022/06/04 12:45:33;;;;;;;13.35;6.50;;;;;;;20.01;56.30;101857.69;5027290;28;20069;-51
2022/06/04 12:48:36;;;;;;;14.80;8.57;;;;;;;19.95;56.55;101862.53;5023374;28;20056;-45
2022/06/04 12:51:40;;;;;;;14.43;8.27;;;;;;;20.02;57.39;101858.53;5025190;28;20054;-46
2022/06/04 12:54:31;;;;;;;10.48;7.10;;;;;;;20.20;58.13;101858.44;5019486;28;20137;-49
2022/06/04 12:57:40;;;;;;;20.83;7.13;;;;;;;20.40;57.30;101854.44;5024524;28;20054;-48
2022/06/04 13:00:32;;;;;;;13.35;6.90;;;;;;;20.49;55.98;101856.44;5025166;28;20057;-48
2022/06/04 13:03:33;;;;;;;11.75;7.28;;;;;;;20.39;55.25;101863.84;5015509;28;20046;-50
2022/06/04 13:06:33;;;;;;;12.23;7.07;;;;;;;20.28;55.94;101859.66;5012130;28;20065;-50
2022/06/04 13:09:51;;;;;;;13.88;7.68;;;;;;;20.36;56.44;101861.69;5013489;28;20141;-49
2022/06/04 13:12:53;;;;;;;12.15;6.60;;;;;;;20.41;56.45;101867.13;5018569;28;20060;-49
2022/06/04 13:15:53;;;;;;;14.77;7.50;;;;;;;20.45;55.95;101870.09;5024810;28;20053;-48
2022/06/04 13:18:41;;;;;;;12.73;6.95;;;;;;;20.63;55.83;101868.34;5017987;28;20104;-48
2022/06/04 13:21:29;;;;;;;12.23;6.03;;;;;;;20.69;53.93;101866.31;5020096;28;20482;-48
2022/06/04 13:24:21;;;;;;;11.98;6.40;;;;;;;20.64;54.10;101853.41;5012325;28;20049;-49
2022/06/04 13:27:12;;;;;;;11.32;6.00;;;;;;;20.63;54.31;101852.56;5019325;28;20049;-49
2022/06/04 13:29:59;;;;;;;10.20;6.70;;;;;;;20.70;53.56;101846.59;5009954;28;20072;-47
2022/06/04 13:32:48;;;;;;;15.48;6.65;;;;;;;20.71;53.50;101852.94;5028825;28;20049;-48
2022/06/04 13:35:43;;;;;;;14.20;6.07;;;;;;;20.77;53.91;101846.19;5016860;28;20046;-49